createdAt,value
2022-12-09T00:00:12.287Z,100890.50
2022-12-09T00:02:14.391Z,100879.25
2022-12-09T00:04:17.313Z,100877.53
2022-12-09T00:06:21.723Z,100875.81
2022-12-09T00:08:23.387Z,100876.66
2022-12-09T00:10:24.910Z,100875.75
2022-12-09T00:12:26.397Z,100877.47
2022-12-09T00:14:28.806Z,100880.03
2022-12-09T00:16:30.677Z,100880.88
2022-12-09T00:18:32.417Z,100882.63
2022-12-09T00:20:33.941Z,100878.28
2022-12-09T00:22:35.448Z,100874.78
2022-12-09T00:24:36.923Z,100883.41
2022-12-09T00:26:39.430Z,100879.00
2022-12-09T00:28:41.522Z,100878.97
2022-12-09T00:30:43.075Z,100873.75
2022-12-09T00:32:44.644Z,100874.63
2022-12-09T00:34:46.166Z,100872.88
2022-12-09T00:36:47.741Z,100881.56
2022-12-09T00:38:49.695Z,100881.56
2022-12-09T00:40:51.365Z,100880.66
2022-12-09T00:42:53.061Z,100886.69
2022-12-09T00:44:54.604Z,100888.41
2022-12-09T00:46:56.115Z,100893.59
2022-12-09T00:48:57.753Z,100890.16
2022-12-09T00:50:59.212Z,100890.13
2022-12-09T00:53:00.720Z,100888.44
2022-12-09T00:55:02.367Z,100884.94
2022-12-09T00:57:04.512Z,100884.94
2022-12-09T00:59:05.993Z,100879.75
2022-12-09T01:01:07.826Z,100887.53
2022-12-09T01:03:16.919Z,100897.94
2022-12-09T01:05:18.667Z,100890.13
2022-12-09T01:07:20.382Z,100887.53
2022-12-09T01:09:22.616Z,100884.09
2022-12-09T01:11:27.706Z,100882.34
2022-12-09T01:13:29.288Z,100885.78
2022-12-09T01:15:30.900Z,100885.72
2022-12-09T01:17:32.626Z,100890.00
2022-12-09T01:19:34.408Z,100890.81
2022-12-09T01:21:36.091Z,100898.56
2022-12-09T01:23:37.716Z,100896.75
2022-12-09T01:25:39.405Z,100895.88
2022-12-09T01:27:41.121Z,100891.47
2022-12-09T01:29:42.597Z,100895.75
2022-12-09T01:31:44.433Z,100892.22
2022-12-09T01:33:46.469Z,100893.00
2022-12-09T01:35:48.047Z,100886.91
2022-12-09T01:37:49.615Z,100892.06
2022-12-09T01:39:51.339Z,100892.84
2022-12-09T01:41:52.953Z,100900.59
2022-12-09T01:44:11.056Z,100891.03
2022-12-09T01:46:12.968Z,100893.47
2022-12-09T01:48:18.677Z,100891.66
2022-12-09T01:50:20.789Z,100888.13
2022-12-09T01:52:23.739Z,100888.13
2022-12-09T01:54:25.869Z,100885.53
2022-12-09T01:56:33.524Z,100891.56
2022-12-09T01:58:35.274Z,100895.78
2022-12-09T02:00:37.004Z,100900.03
2022-12-09T02:02:42.018Z,100904.22
2022-12-09T02:04:47.860Z,100900.75
2022-12-09T02:06:49.637Z,100906.78
2022-12-09T02:08:51.770Z,100896.41
2022-12-09T02:11:09.477Z,100895.50
2022-12-09T02:13:19.815Z,100887.63
2022-12-09T02:15:26.084Z,100890.13
2022-12-09T02:17:52.573Z,100884.03
2022-12-09T02:20:17.472Z,100889.31
2022-12-09T02:22:29.358Z,100885.94
2022-12-09T02:24:56.872Z,100882.56
2022-12-09T02:27:09.385Z,100870.50
2022-12-09T02:29:45.008Z,100873.97
2022-12-09T02:32:10.692Z,100869.69
2022-12-09T02:34:19.775Z,100868.00
2022-12-09T02:36:25.810Z,100863.69
2022-12-09T02:38:30.395Z,100862.84
2022-12-09T02:40:43.779Z,100863.72
2022-12-09T02:42:47.114Z,100862.88
2022-12-09T02:44:51.457Z,100855.09
2022-12-09T02:46:55.422Z,100860.31
2022-12-09T02:48:59.327Z,100859.47
2022-12-09T02:51:04.467Z,100860.34
2022-12-09T02:53:10.596Z,100856.91
2022-12-09T02:55:15.802Z,100854.34
2022-12-09T02:57:22.349Z,100856.97
2022-12-09T02:59:23.945Z,100856.97
2022-12-09T03:01:42.870Z,100856.16
2022-12-09T03:03:45.418Z,100856.19
2022-12-09T03:06:00.705Z,100860.53
2022-12-09T03:08:08.180Z,100857.97
2022-12-09T03:10:17.761Z,100855.41
2022-12-09T03:12:20.903Z,100857.13
2022-12-09T03:14:30.106Z,100852.81
2022-12-09T03:16:53.772Z,100855.44
2022-12-09T03:19:17.480Z,100858.94
2022-12-09T03:21:22.020Z,100858.13
2022-12-09T03:23:28.990Z,100856.41
2022-12-09T03:25:34.439Z,100855.53
2022-12-09T03:27:41.800Z,100857.28
2022-12-09T03:29:47.018Z,100852.13
2022-12-09T03:31:50.942Z,100855.59
2022-12-09T03:33:57.910Z,100859.06
2022-12-09T03:36:04.858Z,100848.66
2022-12-09T03:38:10.235Z,100848.66
2022-12-09T03:40:16.099Z,100843.50
2022-12-09T03:42:31.243Z,100846.13
2022-12-09T03:44:40.241Z,100847.84
2022-12-09T03:46:42.067Z,100843.53
2022-12-09T03:48:43.712Z,100849.59
2022-12-09T03:50:57.754Z,100844.44
2022-12-09T03:53:13.000Z,100842.72
2022-12-09T03:55:39.111Z,100842.72
2022-12-09T03:57:44.709Z,100847.94
2022-12-09T03:59:53.574Z,100834.97
2022-12-09T04:01:55.472Z,100841.88
2022-12-09T04:03:58.114Z,100838.41
2022-12-09T04:05:59.893Z,100837.56
2022-12-09T04:08:01.434Z,100826.31
2022-12-09T04:10:04.705Z,100839.31
2022-12-09T04:12:06.903Z,100830.66
2022-12-09T04:14:15.027Z,100821.97
2022-12-09T04:16:17.478Z,100826.31
2022-12-09T04:18:20.014Z,100831.50
2022-12-09T04:20:21.579Z,100828.91
2022-12-09T04:22:23.070Z,100840.16
2022-12-09T04:24:24.530Z,100828.03
2022-12-09T04:26:25.979Z,100833.22
2022-12-09T04:28:27.423Z,100828.91
2022-12-09T04:30:29.142Z,100818.53
2022-12-09T04:32:31.444Z,100827.16
2022-12-09T04:34:34.040Z,100826.28
2022-12-09T04:36:35.678Z,100819.31
2022-12-09T04:38:37.959Z,100815.81
2022-12-09T04:40:39.692Z,100816.69
2022-12-09T04:42:41.207Z,100812.34
2022-12-09T04:44:42.664Z,100814.94
2022-12-09T04:46:44.291Z,100806.28
2022-12-09T04:48:45.863Z,100811.44
2022-12-09T04:50:47.467Z,100812.22
2022-12-09T04:52:49.020Z,100810.44
2022-12-09T04:54:51.046Z,100812.13
2022-12-09T04:56:52.717Z,100806.03
2022-12-09T04:58:54.259Z,100812.91
2022-12-09T05:00:56.655Z,100819.66
2022-12-09T05:02:58.326Z,100822.94
2022-12-09T05:05:03.024Z,100831.41
2022-12-09T05:07:04.862Z,100827.06
2022-12-09T05:09:11.511Z,100830.50
2022-12-09T05:11:17.950Z,100832.25
2022-12-09T05:13:19.507Z,100822.72
2022-12-09T05:15:21.710Z,100824.44
2022-12-09T05:17:23.391Z,100828.78
2022-12-09T05:19:25.152Z,100830.50
2022-12-09T05:21:26.961Z,100833.09
2022-12-09T05:23:28.721Z,100822.72
2022-12-09T05:25:30.339Z,100835.69
2022-12-09T05:27:31.881Z,100825.31
2022-12-09T05:29:33.572Z,100831.34
2022-12-09T05:31:35.555Z,100825.31
2022-12-09T05:33:37.767Z,100827.03
2022-12-09T05:35:50.518Z,100825.28
2022-12-09T05:37:53.786Z,100825.28
2022-12-09T05:39:55.403Z,100821.81
2022-12-09T05:41:57.087Z,100825.28
2022-12-09T05:43:58.976Z,100818.34
2022-12-09T05:46:01.843Z,100827.84
2022-12-09T05:48:03.761Z,100822.63
2022-12-09T05:50:08.606Z,100821.75
2022-12-09T05:52:14.377Z,100825.19
2022-12-09T05:54:16.420Z,100820.84
2022-12-09T05:56:19.931Z,100825.09
2022-12-09T05:58:22.284Z,100822.47
2022-12-09T06:00:24.422Z,100819.84
2022-12-09T06:02:26.244Z,100812.91
2022-12-09T06:04:28.062Z,100808.56
2022-12-09T06:06:32.772Z,100811.09
2022-12-09T06:08:35.465Z,100811.03
2022-12-09T06:10:41.410Z,100814.44
2022-12-09T06:12:49.031Z,100816.09
2022-12-09T06:14:51.002Z,100817.78
2022-12-09T06:16:52.649Z,100815.19
2022-12-09T06:18:58.510Z,100816.03
2022-12-09T06:21:05.461Z,100810.78
2022-12-09T06:23:07.911Z,100805.53
2022-12-09T06:25:10.685Z,100809.84
2022-12-09T06:27:12.363Z,100812.38
2022-12-09T06:29:13.977Z,100806.34
2022-12-09T06:31:16.425Z,100806.31
2022-12-09T06:33:52.380Z,100811.44
2022-12-09T06:35:39.597Z,100802.72
2022-12-09T06:37:41.756Z,100801.84
2022-12-09T06:39:43.721Z,100810.41
2022-12-09T06:41:45.611Z,100808.63
2022-12-09T06:43:47.674Z,100805.16
2022-12-09T06:45:49.208Z,100808.56
2022-12-09T06:47:50.775Z,100806.78
2022-12-09T06:49:52.573Z,100805.88
2022-12-09T06:51:54.154Z,100811.91
2022-12-09T06:53:56.058Z,100807.59
2022-12-09T06:56:07.897Z,100809.31
2022-12-09T06:58:12.937Z,100816.16
2022-12-09T07:00:15.950Z,100822.16
2022-12-09T07:02:17.900Z,100813.50
2022-12-09T07:04:19.680Z,100819.47
2022-12-09T07:06:25.425Z,100822.91
2022-12-09T07:08:27.680Z,100821.13
2022-12-09T07:10:29.934Z,100814.19
2022-12-09T07:12:31.612Z,100831.41
2022-12-09T07:14:33.258Z,100827.00
2022-12-09T07:16:36.192Z,100834.75
2022-12-09T07:18:38.187Z,100835.56
2022-12-09T07:20:39.832Z,100831.22
2022-12-09T07:22:41.423Z,100826.88
2022-12-09T07:24:44.033Z,100829.44
2022-12-09T07:26:46.364Z,100830.31
2022-12-09T07:28:50.190Z,100835.47
2022-12-09T07:30:51.965Z,100837.19
2022-12-09T07:32:53.734Z,100842.38
2022-12-09T07:34:55.628Z,100838.06
2022-12-09T07:36:57.321Z,100840.66
2022-12-09T07:39:02.219Z,100843.28
2022-12-09T07:41:08.883Z,100846.78
2022-12-09T07:43:10.619Z,100850.25
2022-12-09T07:45:14.024Z,100850.31
2022-12-09T07:47:16.396Z,100858.16
2022-12-09T07:49:18.387Z,100852.22
2022-12-09T07:51:20.536Z,100854.03
2022-12-09T07:53:22.343Z,100851.56
2022-12-09T07:55:24.067Z,100855.03
2022-12-09T07:57:25.597Z,100858.53
2022-12-09T07:59:27.178Z,100860.28
2022-12-09T08:01:30.179Z,100859.50
2022-12-09T08:03:31.978Z,100858.66
2022-12-09T08:05:33.784Z,100855.25
2022-12-09T08:07:40.166Z,100855.38
2022-12-09T08:09:45.655Z,100863.22
2022-12-09T08:11:47.736Z,100860.72
2022-12-09T08:13:50.359Z,100859.94
2022-12-09T08:15:52.393Z,100864.34
2022-12-09T08:17:54.536Z,100859.25
2022-12-09T08:19:56.661Z,100864.53
2022-12-09T08:21:58.607Z,100857.66
2022-12-09T08:24:02.371Z,100859.47
2022-12-09T08:26:05.248Z,100864.69
2022-12-09T08:28:07.164Z,100863.00
2022-12-09T08:30:09.349Z,100863.94
2022-12-09T08:32:11.336Z,100866.59
2022-12-09T08:34:14.588Z,100864.91
2022-12-09T08:36:23.101Z,100866.66
2022-12-09T08:38:24.678Z,100869.28
2022-12-09T08:40:26.393Z,100871.94
2022-12-09T08:42:30.496Z,100864.28
2022-12-09T08:44:32.398Z,100865.25
2022-12-09T08:46:35.645Z,100871.38
2022-12-09T08:48:39.040Z,100870.53
2022-12-09T08:50:40.811Z,100874.06
2022-12-09T08:52:43.004Z,100861.97
2022-12-09T08:54:44.944Z,100865.44
2022-12-09T08:56:48.641Z,100862.94
2022-12-09T08:58:50.183Z,100862.16
2022-12-09T09:00:52.358Z,100858.75
2022-12-09T09:02:54.266Z,100860.53
2022-12-09T09:04:57.537Z,100856.25
2022-12-09T09:07:00.378Z,100862.31
2022-12-09T09:09:02.489Z,100856.34
2022-12-09T09:11:10.455Z,100859.03
2022-12-09T09:13:12.138Z,100860.78
2022-12-09T09:15:14.494Z,100855.66
2022-12-09T09:17:16.902Z,100866.06
2022-12-09T09:19:22.045Z,100866.06
2022-12-09T09:21:26.863Z,100865.19
2022-12-09T09:23:28.763Z,100868.66
2022-12-09T09:25:30.605Z,100877.34
2022-12-09T09:27:32.249Z,100873.00
2022-12-09T09:29:34.266Z,100874.72
2022-12-09T09:31:36.565Z,100873.84
2022-12-09T09:33:38.250Z,100868.59
2022-12-09T09:35:39.747Z,100877.19
2022-12-09T09:37:41.196Z,100880.66
2022-12-09T09:39:43.303Z,100883.31
2022-12-09T09:41:57.159Z,100879.81
2022-12-09T09:44:00.225Z,100875.44
2022-12-09T09:46:05.215Z,100877.16
2022-12-09T09:48:11.868Z,100877.97
2022-12-09T09:50:27.640Z,100873.72
2022-12-09T09:52:30.396Z,100874.56
2022-12-09T09:54:32.467Z,100871.84
2022-12-09T09:56:43.181Z,100871.00
2022-12-09T09:59:16.001Z,100874.50
2022-12-09T10:01:19.049Z,100871.09
2022-12-09T10:03:32.569Z,100865.97
2022-12-09T10:05:50.914Z,100865.97
2022-12-09T10:07:58.325Z,100855.69
2022-12-09T10:10:12.133Z,100860.13
2022-12-09T10:12:38.156Z,100856.72
2022-12-09T10:15:09.661Z,100850.72
2022-12-09T10:17:34.641Z,100852.50
2022-12-09T10:19:42.768Z,100853.38
2022-12-09T10:21:46.781Z,100842.84
2022-12-09T10:23:49.972Z,100850.59
2022-12-09T10:26:00.366Z,100851.41
2022-12-09T10:28:19.430Z,100848.63
2022-12-09T10:30:21.607Z,100852.94
2022-12-09T10:32:26.657Z,100852.06
2022-12-09T10:34:28.430Z,100855.63
2022-12-09T10:36:35.775Z,100848.84
2022-12-09T10:38:41.165Z,100845.53
2022-12-09T10:40:46.001Z,100855.09
2022-12-09T10:43:08.076Z,100849.78
2022-12-09T10:45:10.872Z,100854.00
2022-12-09T10:47:27.226Z,100856.53
2022-12-09T10:49:29.557Z,100852.06
2022-12-09T10:51:35.658Z,100855.59
2022-12-09T10:53:44.710Z,100854.84
2022-12-09T10:55:52.300Z,100848.00
2022-12-09T10:58:10.481Z,100849.00
2022-12-09T11:00:28.367Z,100843.94
2022-12-09T11:02:34.112Z,100842.38
2022-12-09T11:04:42.119Z,100852.84
2022-12-09T11:06:44.927Z,100851.75
2022-12-09T11:08:52.540Z,100857.69
2022-12-09T11:10:54.625Z,100850.84
2022-12-09T11:13:06.207Z,100854.44
2022-12-09T11:15:28.009Z,100849.31
2022-12-09T11:17:37.767Z,100856.28
2022-12-09T11:19:40.914Z,100856.25
2022-12-09T11:21:42.947Z,100858.63
2022-12-09T11:24:00.697Z,100861.16
2022-12-09T11:26:07.010Z,100852.41
2022-12-09T11:28:18.020Z,100854.94
2022-12-09T11:30:34.141Z,100870.41
2022-12-09T11:32:52.838Z,100864.28
2022-12-09T11:34:54.443Z,100862.59
2022-12-09T11:36:58.981Z,100856.59
2022-12-09T11:39:30.042Z,100850.59
2022-12-09T11:41:49.729Z,100852.31
2022-12-09T11:43:54.382Z,100841.16
2022-12-09T11:45:56.075Z,100845.59
2022-12-09T11:48:29.807Z,100840.47
2022-12-09T11:50:37.452Z,100844.91
2022-12-09T11:52:38.996Z,100844.94
2022-12-09T11:55:15.085Z,100838.94
2022-12-09T11:57:38.234Z,100841.53
2022-12-09T11:59:48.560Z,100839.81
2022-12-09T12:02:22.965Z,100845.06
2022-12-09T12:04:34.737Z,100838.94
2022-12-09T12:06:48.118Z,100845.03
2022-12-09T12:08:54.479Z,100837.25
2022-12-09T12:11:00.686Z,100839.03
2022-12-09T12:13:22.234Z,100843.41
2022-12-09T12:15:38.156Z,100832.19
2022-12-09T12:17:49.523Z,100838.25
2022-12-09T12:19:53.314Z,100835.69
2022-12-09T12:22:03.732Z,100837.38
2022-12-09T12:24:14.404Z,100846.06
2022-12-09T12:26:44.910Z,100843.44
2022-12-09T12:29:11.211Z,100845.19
2022-12-09T12:31:21.659Z,100843.44
2022-12-09T12:36:12.898Z,100837.31
2022-12-09T12:38:31.716Z,100840.78
2022-12-09T12:40:38.702Z,100835.59
2022-12-09T12:43:44.374Z,100839.03
2022-12-09T12:46:17.361Z,100842.47
2022-12-09T12:48:38.274Z,100844.22
2022-12-09T12:51:11.398Z,100833.88
2022-12-09T12:53:12.784Z,100826.94
2022-12-09T12:55:36.572Z,100829.56
2022-12-09T12:57:55.022Z,100830.44
2022-12-09T13:00:12.877Z,100830.44
2022-12-09T13:02:35.431Z,100824.38
2022-12-09T13:04:47.308Z,100824.34
2022-12-09T13:06:52.972Z,100826.97
2022-12-09T13:09:03.220Z,100830.47
2022-12-09T13:11:12.180Z,100831.38
2022-12-09T13:13:20.724Z,100831.34
2022-12-09T13:15:32.337Z,100825.22
2022-12-09T13:17:33.807Z,100824.31
2022-12-09T13:19:41.700Z,100829.50
2022-12-09T13:21:45.593Z,100827.78
2022-12-09T13:24:08.605Z,100823.44
2022-12-09T13:26:36.246Z,100820.00
2022-12-09T13:28:44.698Z,100822.63
2022-12-09T13:30:56.868Z,100813.97
2022-12-09T13:33:16.378Z,100813.97
2022-12-09T13:35:29.494Z,100812.19
2022-12-09T13:37:32.339Z,100813.09
2022-12-09T13:39:39.758Z,100814.03
2022-12-09T13:42:02.482Z,100814.94
2022-12-09T13:44:09.889Z,100813.22
2022-12-09T13:46:22.453Z,100813.28
2022-12-09T13:48:23.878Z,100805.50
2022-12-09T13:50:43.487Z,100808.94
2022-12-09T13:52:50.793Z,100810.59
2022-12-09T13:54:52.315Z,100813.22
2022-12-09T13:57:06.015Z,100810.63
2022-12-09T13:59:26.457Z,100806.31
2022-12-09T14:01:57.482Z,100811.47
2022-12-09T14:04:12.094Z,100808.03
2022-12-09T14:06:29.060Z,100801.97
2022-12-09T14:08:39.094Z,100796.84
2022-12-09T14:10:47.732Z,100798.66
2022-12-09T14:12:54.974Z,100802.16
2022-12-09T14:14:58.913Z,100804.75
2022-12-09T14:17:18.091Z,100808.19
2022-12-09T14:19:25.351Z,100806.34
2022-12-09T14:21:30.311Z,100800.22
2022-12-09T14:23:31.843Z,100803.72
2022-12-09T14:25:35.863Z,100809.84
2022-12-09T14:27:37.319Z,100808.13
2022-12-09T14:29:52.870Z,100809.84
2022-12-09T14:32:00.778Z,100815.91
2022-12-09T14:34:17.578Z,100820.31
2022-12-09T14:36:19.227Z,100817.75
2022-12-09T14:41:26.052Z,100815.03
2022-12-09T14:43:34.598Z,100821.06
2022-12-09T14:45:48.915Z,100823.59
2022-12-09T14:47:50.913Z,100817.47
2022-12-09T14:49:55.322Z,100817.47
2022-12-09T14:52:17.518Z,100811.41
2022-12-09T14:54:42.036Z,100810.59
2022-12-09T14:56:52.582Z,100812.38
2022-12-09T14:59:07.485Z,100815.75
2022-12-09T15:01:09.236Z,100823.50
2022-12-09T15:03:42.966Z,100830.38
2022-12-09T15:05:53.888Z,100827.78
2022-12-09T15:07:55.746Z,100832.97
2022-12-09T15:09:58.382Z,100839.03
2022-12-09T15:12:00.037Z,100839.00
2022-12-09T15:14:26.481Z,100837.28
2022-12-09T15:16:28.026Z,100835.50
2022-12-09T15:18:30.882Z,100831.97
2022-12-09T15:20:38.056Z,100837.03
2022-12-09T15:22:39.543Z,100828.34
2022-12-09T15:24:50.049Z,100841.31
2022-12-09T15:27:03.519Z,100841.34
2022-12-09T15:29:06.429Z,100838.78
2022-12-09T15:31:18.525Z,100830.19
2022-12-09T15:33:20.139Z,100833.66
2022-12-09T15:35:25.004Z,100832.72
2022-12-09T15:37:28.563Z,100837.13
2022-12-09T15:39:38.282Z,100834.59
2022-12-09T15:42:03.482Z,100838.06
2022-12-09T15:44:09.641Z,100844.06
2022-12-09T15:46:12.246Z,100851.03
2022-12-09T15:48:19.513Z,100844.97
2022-12-09T15:50:46.846Z,100843.28
2022-12-09T15:52:55.349Z,100840.69
2022-12-09T15:54:58.619Z,100843.31
2022-12-09T15:57:02.566Z,100844.19
2022-12-09T15:59:15.904Z,100845.91
2022-12-09T16:01:30.756Z,100843.34
2022-12-09T16:03:35.408Z,100844.25
2022-12-09T16:05:41.740Z,100836.50
2022-12-09T16:07:58.670Z,100838.25
2022-12-09T16:10:00.128Z,100833.00
2022-12-09T16:12:01.576Z,100831.25
2022-12-09T16:14:03.235Z,100837.25
2022-12-09T16:16:26.800Z,100838.88
2022-12-09T16:18:49.643Z,100850.09
2022-12-09T16:21:17.902Z,100847.53
2022-12-09T16:23:22.015Z,100851.00
2022-12-09T16:25:26.784Z,100848.44
2022-12-09T16:27:33.488Z,100847.63
2022-12-09T16:29:36.886Z,100849.34
2022-12-09T16:31:38.405Z,100845.91
2022-12-09T16:33:39.944Z,100848.47
2022-12-09T16:35:43.264Z,100845.03
2022-12-09T16:38:11.909Z,100846.72
2022-12-09T16:40:33.643Z,100844.97
2022-12-09T16:42:40.587Z,100837.16
2022-12-09T16:44:42.407Z,100842.34
2022-12-09T16:46:43.986Z,100843.19
2022-12-09T16:48:48.207Z,100841.47
2022-12-09T16:51:11.989Z,100843.16
2022-12-09T16:53:16.291Z,100832.72
2022-12-09T16:55:27.963Z,100840.66
2022-12-09T16:57:29.402Z,100839.81
2022-12-09T16:59:37.561Z,100839.88
2022-12-09T17:01:41.513Z,100842.50
2022-12-09T17:03:47.971Z,100852.06
2022-12-09T17:05:49.476Z,100845.16
2022-12-09T17:07:50.980Z,100853.84
2022-12-09T17:09:52.449Z,100842.59
2022-12-09T17:11:53.928Z,100851.22
2022-12-09T17:13:55.410Z,100851.22
2022-12-09T17:15:58.543Z,100854.66
2022-12-09T17:18:00.175Z,100857.22
2022-12-09T17:20:01.671Z,100852.88
2022-12-09T17:22:03.410Z,100861.50
2022-12-09T17:24:05.173Z,100859.78
2022-12-09T17:26:09.614Z,100862.38
2022-12-09T17:28:11.047Z,100861.53
2022-12-09T17:30:13.051Z,100865.84
2022-12-09T17:32:14.540Z,100866.72
2022-12-09T17:34:16.004Z,100863.25
2022-12-09T17:36:18.979Z,100864.97
2022-12-09T17:38:20.666Z,100871.88
2022-12-09T17:40:22.226Z,100871.88
2022-12-09T17:42:23.674Z,100873.63
2022-12-09T17:44:25.158Z,100873.63
2022-12-09T17:46:26.993Z,100872.72
2022-12-09T17:48:29.957Z,100875.31
2022-12-09T17:50:31.697Z,100884.00
2022-12-09T17:52:33.414Z,100885.75
2022-12-09T17:54:34.970Z,100894.41
2022-12-09T17:56:36.683Z,100893.41
2022-12-09T17:58:39.654Z,100899.44
2022-12-09T18:00:41.829Z,100897.66
2022-12-09T18:02:43.334Z,100898.47
2022-12-09T18:04:44.901Z,100897.59
2022-12-09T18:06:46.383Z,100898.44
2022-12-09T18:08:47.833Z,100895.00
2022-12-09T18:10:49.279Z,100901.91
2022-12-09T18:12:50.727Z,100899.22
2022-12-09T18:14:52.155Z,100903.53
2022-12-09T18:16:53.708Z,100896.63
2022-12-09T18:18:55.905Z,100910.50
2022-12-09T18:21:00.660Z,100909.69
2022-12-09T18:23:02.103Z,100912.31
2022-12-09T18:25:03.601Z,100920.13
2022-12-09T18:27:05.109Z,100914.94
2022-12-09T18:29:06.681Z,100921.88
2022-12-09T18:31:10.192Z,100928.81
2022-12-09T18:33:11.790Z,100922.75
2022-12-09T18:35:13.223Z,100925.34
2022-12-09T18:37:15.441Z,100916.66
2022-12-09T18:39:17.857Z,100920.97
2022-12-09T18:41:25.435Z,100918.34
2022-12-09T18:43:36.286Z,100918.31
2022-12-09T18:45:37.737Z,100920.88
2022-12-09T18:47:39.176Z,100918.31
2022-12-09T18:49:40.666Z,100928.69
2022-12-09T18:51:43.914Z,100926.84
2022-12-09T18:53:46.241Z,100927.69
2022-12-09T18:55:47.697Z,100926.00
2022-12-09T18:57:49.143Z,100924.31
2022-12-09T18:59:52.730Z,100925.97
2022-12-09T19:01:54.595Z,100921.63
2022-12-09T19:03:58.586Z,100927.69
2022-12-09T19:06:00.076Z,100925.97
2022-12-09T19:08:01.556Z,100922.53
2022-12-09T19:10:03.415Z,100913.91
2022-12-09T19:12:37.856Z,100925.19
2022-12-09T19:14:26.828Z,100917.44
2022-12-09T19:16:29.137Z,100928.72
2022-12-09T19:18:30.900Z,100920.91
2022-12-09T19:20:32.512Z,100923.50
2022-12-09T19:22:33.962Z,100917.47
2022-12-09T19:24:39.741Z,100921.81
2022-12-09T19:26:44.666Z,100928.56
2022-12-09T19:28:49.041Z,100920.75
2022-12-09T19:30:50.537Z,100919.91
2022-12-09T19:32:53.430Z,100928.59
2022-12-09T19:34:55.143Z,100929.47
2022-12-09T19:36:58.967Z,100932.91
2022-12-09T19:39:01.539Z,100933.78
2022-12-09T19:41:03.691Z,100929.50
2022-12-09T19:43:05.259Z,100933.03
2022-12-09T19:45:12.070Z,100932.19
2022-12-09T19:47:15.272Z,100934.78
2022-12-09T19:49:18.784Z,100932.19
2022-12-09T19:51:21.154Z,100939.94
2022-12-09T19:53:22.645Z,100936.50
2022-12-09T19:55:24.093Z,100946.03
2022-12-09T19:57:25.632Z,100944.31
2022-12-09T19:59:27.725Z,100949.53
2022-12-09T20:01:32.965Z,100946.94
2022-12-09T20:03:34.481Z,100950.41
2022-12-09T20:05:35.929Z,100947.81
2022-12-09T20:07:37.493Z,100946.94
2022-12-09T20:09:39.831Z,100949.56
2022-12-09T20:11:42.051Z,100946.94
2022-12-09T20:13:45.303Z,100946.97
2022-12-09T20:15:47.000Z,100950.41
2022-12-09T20:17:48.467Z,100952.13
2022-12-09T20:19:50.039Z,100949.50
2022-12-09T20:21:51.576Z,100949.53
2022-12-09T20:23:54.394Z,100948.69
2022-12-09T20:26:03.660Z,100956.50
2022-12-09T20:28:06.202Z,100957.38
2022-12-09T20:30:08.607Z,100965.09
2022-12-09T20:32:10.542Z,100958.16
2022-12-09T20:34:16.292Z,100959.88
2022-12-09T20:36:20.715Z,100964.25
2022-12-09T20:38:22.158Z,100955.63
2022-12-09T20:40:23.771Z,100956.50
2022-12-09T20:42:25.345Z,100966.00
2022-12-09T20:44:26.937Z,100957.38
2022-12-09T20:46:33.336Z,100959.97
2022-12-09T20:48:35.950Z,100954.78
2022-12-09T20:50:39.028Z,100962.63
2022-12-09T20:52:40.549Z,100965.19
2022-12-09T20:54:42.026Z,100962.50
2022-12-09T20:56:43.656Z,100958.13
2022-12-09T20:58:46.833Z,100960.75
2022-12-09T21:00:48.319Z,100957.31
2022-12-09T21:02:49.866Z,100956.50
2022-12-09T21:04:51.397Z,100960.84
2022-12-09T21:06:52.952Z,100958.22
2022-12-09T21:08:54.655Z,100965.13
2022-12-09T21:11:07.119Z,100970.31
2022-12-09T21:13:08.604Z,100966.00
2022-12-09T21:15:11.860Z,100966.03
2022-12-09T21:17:13.322Z,100968.63
2022-12-09T21:19:16.639Z,100961.75
2022-12-09T21:21:19.451Z,100965.25
2022-12-09T21:23:36.095Z,100966.16
2022-12-09T21:25:37.555Z,100976.53
2022-12-09T21:27:39.851Z,100976.53
2022-12-09T21:29:41.347Z,100972.25
2022-12-09T21:31:44.189Z,100974.84
2022-12-09T21:33:46.796Z,100970.53
2022-12-09T21:35:48.291Z,100971.41
2022-12-09T21:37:55.878Z,100967.09
2022-12-09T21:39:57.613Z,100968.84
2022-12-09T21:41:59.594Z,100978.38
2022-12-09T21:44:01.151Z,100968.84
2022-12-09T21:46:04.530Z,100971.44
2022-12-09T21:48:06.278Z,100974.91
2022-12-09T21:50:08.606Z,100974.91
2022-12-09T21:52:10.918Z,100972.31
2022-12-09T21:54:12.421Z,100973.19
2022-12-09T21:56:19.004Z,100974.94
2022-12-09T21:58:20.773Z,100980.09
2022-12-09T22:00:22.411Z,100985.22
2022-12-09T22:02:23.922Z,100981.59
2022-12-09T22:04:25.395Z,100981.59
2022-12-09T22:06:27.228Z,100985.13
2022-12-09T22:08:28.704Z,100992.00
2022-12-09T22:10:30.187Z,100991.13
2022-12-09T22:12:31.657Z,100988.59
2022-12-09T22:14:33.110Z,100981.69
2022-12-09T22:16:38.913Z,100987.78
2022-12-09T22:18:42.279Z,100982.59
2022-12-09T22:21:15.941Z,100984.34
2022-12-09T22:23:05.685Z,100986.06
2022-12-09T22:25:08.315Z,100986.91
2022-12-09T22:27:09.774Z,100986.94
2022-12-09T22:29:14.093Z,100976.56
2022-12-09T22:31:26.783Z,100984.38
2022-12-09T22:33:29.045Z,100988.69
2022-12-09T22:35:30.541Z,100986.06
2022-12-09T22:37:47.403Z,100983.47
2022-12-09T22:39:48.918Z,100988.69
2022-12-09T22:41:51.100Z,100986.94
2022-12-09T22:43:54.561Z,100987.81
2022-12-09T22:45:56.073Z,100996.47
2022-12-09T22:47:57.555Z,100992.97
2022-12-09T22:49:59.053Z,100992.13
2022-12-09T22:52:00.949Z,100993.00
2022-12-09T22:54:05.266Z,100995.59
2022-12-09T22:56:07.894Z,101005.09
2022-12-09T22:58:09.335Z,100998.22
2022-12-09T23:00:11.547Z,100993.91
2022-12-09T23:02:13.683Z,100993.06
2022-12-09T23:04:17.555Z,100989.63
2022-12-09T23:06:19.079Z,100982.66
2022-12-09T23:08:20.607Z,100993.03
2022-12-09T23:10:22.115Z,100997.38
2022-12-09T23:12:23.651Z,100996.50
2022-12-09T23:14:25.396Z,100999.97
2022-12-09T23:16:27.403Z,100996.50
2022-12-09T23:18:33.555Z,100998.16
2022-12-09T23:20:35.103Z,100988.63
2022-12-09T23:22:36.878Z,100996.47
2022-12-09T23:24:38.448Z,100990.41
2022-12-09T23:26:41.552Z,100997.28
2022-12-09T23:28:49.093Z,101000.75
2022-12-09T23:30:50.819Z,100996.41
2022-12-09T23:32:52.347Z,100999.03
2022-12-09T23:34:53.838Z,101002.47
2022-12-09T23:36:55.919Z,100998.13
2022-12-09T23:38:58.250Z,100991.13
2022-12-09T23:40:59.980Z,100996.31
2022-12-09T23:43:01.412Z,100999.78
2022-12-09T23:45:02.894Z,100997.28
2022-12-09T23:47:04.461Z,100999.03
2022-12-09T23:49:07.518Z,101005.09
2022-12-09T23:51:19.238Z,100993.88
2022-12-09T23:53:21.664Z,100993.84
2022-12-09T23:55:23.098Z,100995.56
2022-12-09T23:57:24.555Z,100993.84
2022-12-09T23:59:25.983Z,100992.09
